createdAt,value
2024-01-11T00:01:50.335Z,11.82
2024-01-11T00:04:18.467Z,11.12
2024-01-11T00:06:47.177Z,10.80
2024-01-11T00:09:15.169Z,12.52
2024-01-11T00:11:43.157Z,12.40
2024-01-11T00:14:11.185Z,11.93
2024-01-11T00:16:39.280Z,11.35
2024-01-11T00:19:07.438Z,13.48
2024-01-11T00:21:36.738Z,11.00
2024-01-11T00:24:06.004Z,11.88
2024-01-11T00:26:34.050Z,11.18
2024-01-11T00:29:02.115Z,12.48
2024-01-11T00:31:30.209Z,13.62
2024-01-11T00:33:58.182Z,11.32
2024-01-11T00:36:26.224Z,12.35
2024-01-11T00:38:54.162Z,11.40
2024-01-11T00:41:22.116Z,13.52
2024-01-11T00:43:50.091Z,11.65
2024-01-11T00:46:18.231Z,10.77
2024-01-11T00:48:46.363Z,12.10
2024-01-11T00:51:14.482Z,10.80
2024-01-11T00:53:42.487Z,10.90
2024-01-11T00:56:23.083Z,11.75
2024-01-11T00:58:51.193Z,10.80
2024-01-11T01:01:19.343Z,10.38
2024-01-11T01:03:47.332Z,10.60
2024-01-11T01:06:15.490Z,12.37
2024-01-11T01:08:43.574Z,12.48
2024-01-11T01:11:11.660Z,10.48
2024-01-11T01:13:39.658Z,11.38
2024-01-11T01:16:07.791Z,11.25
2024-01-11T01:18:35.793Z,12.25
2024-01-11T01:21:03.739Z,12.20
2024-01-11T01:23:31.800Z,12.82
2024-01-11T01:25:59.922Z,13.65
2024-01-11T01:28:27.831Z,13.38
2024-01-11T01:30:55.853Z,12.02
2024-01-11T01:33:23.985Z,11.95
2024-01-11T01:35:52.075Z,11.05
2024-01-11T01:38:20.096Z,12.10
2024-01-11T01:40:48.080Z,12.13
2024-01-11T01:43:16.081Z,13.73
2024-01-11T01:45:44.085Z,12.68
2024-01-11T01:48:12.331Z,13.30
2024-01-11T01:50:40.876Z,11.65
2024-01-11T01:53:09.839Z,13.20
2024-01-11T01:55:37.968Z,13.18
2024-01-11T01:58:06.774Z,14.95
2024-01-11T02:00:35.031Z,13.75
2024-01-11T02:03:03.146Z,12.52
2024-01-11T02:05:31.285Z,14.43
2024-01-11T02:08:02.187Z,13.10
2024-01-11T02:10:30.700Z,12.23
2024-01-11T02:12:58.814Z,12.30
2024-01-11T02:15:26.864Z,11.10
2024-01-11T02:17:55.045Z,12.02
2024-01-11T02:20:23.088Z,11.50
2024-01-11T02:22:58.643Z,11.93
2024-01-11T02:25:26.510Z,11.45
2024-01-11T02:27:54.511Z,10.73
2024-01-11T02:30:22.465Z,11.82
2024-01-11T02:32:51.922Z,12.02
2024-01-11T02:35:21.162Z,15.60
2024-01-11T02:37:50.020Z,13.60
2024-01-11T02:40:18.807Z,13.30
2024-01-11T02:42:46.802Z,15.73
2024-01-11T02:45:15.096Z,13.27
2024-01-11T02:47:43.506Z,13.32
2024-01-11T02:50:11.719Z,14.27
2024-01-11T02:52:40.093Z,15.93
2024-01-11T02:55:08.417Z,14.95
2024-01-11T02:57:36.321Z,14.32
2024-01-11T03:00:04.688Z,15.40
2024-01-11T03:02:32.818Z,13.73
2024-01-11T03:05:00.847Z,13.73
2024-01-11T03:07:28.925Z,15.05
2024-01-11T03:09:56.975Z,13.15
2024-01-11T03:12:24.942Z,13.75
2024-01-11T03:14:52.859Z,12.93
2024-01-11T03:17:20.917Z,11.82
2024-01-11T03:19:48.919Z,13.68
2024-01-11T03:22:16.890Z,14.45
2024-01-11T03:24:44.819Z,15.48
2024-01-11T03:27:12.779Z,14.30
2024-01-11T03:29:40.891Z,14.23
2024-01-11T03:32:09.290Z,14.57
2024-01-11T03:34:37.363Z,14.43
2024-01-11T03:37:05.469Z,14.63
2024-01-11T03:39:33.752Z,12.57
2024-01-11T03:42:01.724Z,15.48
2024-01-11T03:44:29.658Z,16.98
2024-01-11T03:46:57.691Z,13.43
2024-01-11T03:49:26.245Z,13.73
2024-01-11T03:51:54.278Z,15.90
2024-01-11T03:54:22.324Z,14.73
2024-01-11T03:56:50.676Z,17.27
2024-01-11T03:59:19.247Z,16.33
2024-01-11T04:01:48.364Z,16.20
2024-01-11T04:04:16.366Z,16.27
2024-01-11T04:06:44.512Z,14.87
2024-01-11T04:09:12.483Z,16.65
2024-01-11T04:11:40.782Z,16.55
2024-01-11T04:14:08.859Z,17.65
2024-01-11T04:16:41.670Z,16.00
2024-01-11T04:19:09.905Z,15.88
2024-01-11T04:21:41.186Z,15.55
2024-01-11T04:24:10.193Z,16.08
2024-01-11T04:26:38.365Z,15.38
2024-01-11T04:29:06.546Z,19.08
2024-01-11T04:31:34.607Z,17.37
2024-01-11T04:34:02.750Z,14.77
2024-01-11T04:36:30.766Z,17.15
2024-01-11T04:38:58.688Z,15.90
2024-01-11T04:41:26.713Z,15.75
2024-01-11T04:43:54.762Z,14.60
2024-01-11T04:46:24.393Z,15.40
2024-01-11T04:48:52.946Z,15.25
2024-01-11T04:51:21.221Z,17.08
2024-01-11T04:53:49.482Z,14.38
2024-01-11T04:56:18.888Z,15.00
2024-01-11T04:58:47.870Z,16.73
2024-01-11T05:01:17.389Z,17.65
2024-01-11T05:03:49.499Z,17.48
2024-01-11T05:06:22.056Z,17.77
2024-01-11T05:08:51.886Z,15.75
2024-01-11T05:11:21.129Z,16.20
2024-01-11T05:13:50.728Z,16.85
2024-01-11T05:16:34.252Z,16.65
2024-01-11T05:19:02.239Z,16.83
2024-01-11T05:21:30.267Z,14.27
2024-01-11T05:23:58.272Z,15.55
2024-01-11T05:26:26.258Z,15.68
2024-01-11T05:28:54.264Z,15.25
2024-01-11T05:31:22.288Z,15.98
2024-01-11T05:33:50.541Z,18.35
2024-01-11T05:36:21.290Z,16.67
2024-01-11T05:38:49.285Z,15.88
2024-01-11T05:41:17.538Z,16.10
2024-01-11T05:43:45.739Z,17.25
2024-01-11T05:46:13.877Z,16.33
2024-01-11T05:48:45.228Z,14.10
2024-01-11T05:51:15.955Z,15.25
2024-01-11T05:53:44.312Z,17.87
2024-01-11T05:56:13.148Z,13.65
2024-01-11T05:58:42.214Z,16.20
2024-01-11T06:01:13.142Z,14.73
2024-01-11T06:03:41.603Z,14.68
2024-01-11T06:06:12.352Z,16.85
2024-01-11T06:08:40.665Z,16.20
2024-01-11T06:11:10.082Z,17.62
2024-01-11T06:13:38.153Z,14.82
2024-01-11T06:16:06.346Z,16.37
2024-01-11T06:18:34.424Z,18.00
2024-01-11T06:21:04.858Z,16.62
2024-01-11T06:23:37.127Z,14.93
2024-01-11T06:26:05.772Z,15.18
2024-01-11T06:28:36.108Z,14.93
2024-01-11T06:31:04.949Z,14.43
2024-01-11T06:33:35.251Z,12.43
2024-01-11T06:36:03.260Z,16.42
2024-01-11T06:38:31.319Z,13.38
2024-01-11T06:40:59.776Z,15.27
2024-01-11T06:43:30.812Z,14.55
2024-01-11T06:46:11.659Z,12.60
2024-01-11T06:48:40.479Z,15.80
2024-01-11T06:51:08.518Z,12.93
2024-01-11T06:53:41.812Z,14.82
2024-01-11T06:56:20.816Z,15.13
2024-01-11T06:58:49.450Z,14.40
2024-01-11T07:01:17.415Z,14.85
2024-01-11T07:03:45.349Z,12.80
2024-01-11T07:06:13.600Z,12.82
2024-01-11T07:08:42.061Z,13.93
2024-01-11T07:11:10.122Z,13.60
2024-01-11T07:13:38.066Z,14.32
2024-01-11T07:16:06.336Z,14.02
2024-01-11T07:18:34.335Z,14.50
2024-01-11T07:21:02.427Z,15.00
2024-01-11T07:23:30.532Z,15.93
2024-01-11T07:25:58.517Z,15.70
2024-01-11T07:28:28.010Z,13.75
2024-01-11T07:30:56.085Z,17.33
2024-01-11T07:33:24.227Z,14.07
2024-01-11T07:35:53.136Z,16.10
2024-01-11T07:38:21.252Z,15.35
2024-01-11T07:40:49.278Z,18.23
2024-01-11T07:43:17.307Z,16.55
2024-01-11T07:45:45.321Z,15.23
2024-01-11T07:48:13.649Z,15.38
2024-01-11T07:50:41.841Z,15.75
2024-01-11T07:53:10.026Z,14.25
2024-01-11T07:55:38.033Z,15.00
2024-01-11T07:58:06.072Z,13.70
2024-01-11T08:00:34.022Z,14.38
2024-01-11T08:03:02.781Z,15.48
2024-01-11T08:05:30.916Z,14.68
2024-01-11T08:07:59.077Z,14.10
2024-01-11T08:10:27.070Z,12.75
2024-01-11T08:12:55.116Z,12.60
2024-01-11T08:15:23.105Z,15.07
2024-01-11T08:17:51.261Z,15.93
2024-01-11T08:20:19.374Z,15.00
2024-01-11T08:22:49.040Z,16.48
2024-01-11T08:25:17.211Z,16.05
2024-01-11T08:27:45.360Z,13.50
2024-01-11T08:30:15.096Z,12.55
2024-01-11T08:32:44.459Z,12.57
2024-01-11T08:35:12.983Z,12.52
2024-01-11T08:37:41.741Z,14.35
2024-01-11T08:40:11.917Z,16.98
2024-01-11T08:42:40.421Z,15.05
2024-01-11T08:45:09.617Z,15.43
2024-01-11T08:47:37.978Z,14.63
2024-01-11T08:50:08.500Z,14.85
2024-01-11T08:52:36.610Z,20.23
2024-01-11T08:55:04.824Z,17.90
2024-01-11T08:57:32.891Z,15.35
2024-01-11T09:00:00.974Z,15.20
2024-01-11T09:02:29.120Z,12.90
2024-01-11T09:04:57.192Z,14.25
2024-01-11T09:07:25.197Z,12.13
2024-01-11T09:09:57.066Z,13.30
2024-01-11T09:12:25.743Z,17.08
2024-01-11T09:14:53.778Z,14.25
2024-01-11T09:17:21.892Z,14.90
2024-01-11T09:19:50.104Z,13.15
2024-01-11T09:22:18.530Z,12.32
2024-01-11T09:24:46.493Z,14.23
2024-01-11T09:27:14.477Z,15.70
2024-01-11T09:29:49.573Z,14.95
2024-01-11T09:32:18.134Z,12.00
2024-01-11T09:34:48.234Z,14.15
2024-01-11T09:37:16.270Z,13.02
2024-01-11T09:39:45.004Z,12.63
2024-01-11T09:42:13.298Z,14.48
2024-01-11T09:44:42.214Z,13.27
2024-01-11T09:47:15.258Z,11.88
2024-01-11T09:49:46.915Z,13.70
2024-01-11T09:52:17.018Z,13.27
2024-01-11T09:54:46.281Z,14.10
2024-01-11T09:57:23.562Z,14.50
2024-01-11T09:59:56.557Z,12.43
2024-01-11T10:02:31.421Z,13.77
2024-01-11T10:05:02.381Z,11.43
2024-01-11T10:07:33.091Z,12.37
2024-01-11T10:10:01.228Z,12.63
2024-01-11T10:12:32.996Z,11.57
2024-01-11T10:15:09.021Z,12.50
2024-01-11T10:17:37.082Z,11.85
2024-01-11T10:20:08.301Z,12.57
2024-01-11T10:22:39.047Z,12.13
2024-01-11T10:25:14.286Z,13.48
2024-01-11T10:27:46.105Z,16.02
2024-01-11T10:30:19.180Z,12.20
2024-01-11T10:32:48.246Z,11.55
2024-01-11T10:35:17.072Z,13.77
2024-01-11T10:37:46.629Z,12.70
2024-01-11T10:40:17.850Z,12.10
2024-01-11T10:42:52.352Z,11.85
2024-01-11T10:45:22.202Z,10.98
2024-01-11T10:48:01.645Z,14.05
2024-01-11T10:50:35.887Z,11.65
2024-01-11T10:53:14.277Z,12.37
2024-01-11T10:55:44.616Z,10.80
2024-01-11T10:58:13.889Z,11.82
2024-01-11T11:00:41.888Z,12.88
2024-01-11T11:03:11.659Z,11.95
2024-01-11T11:05:40.745Z,10.45
2024-01-11T11:08:10.480Z,10.20
2024-01-11T11:10:40.316Z,13.18
2024-01-11T11:13:08.920Z,12.05
2024-01-11T11:15:39.447Z,10.45
2024-01-11T11:18:09.932Z,10.18
2024-01-11T11:20:38.098Z,10.43
2024-01-11T11:23:10.208Z,10.63
2024-01-11T11:25:38.535Z,10.55
2024-01-11T11:28:07.029Z,11.02
2024-01-11T11:30:46.184Z,12.25
2024-01-11T11:33:26.628Z,10.57
2024-01-11T11:35:56.913Z,11.73
2024-01-11T11:38:31.326Z,10.30
2024-01-11T11:41:03.440Z,10.80
2024-01-11T11:43:32.551Z,10.43
2024-01-11T11:46:03.765Z,10.63
2024-01-11T11:48:32.475Z,10.07
2024-01-11T11:51:24.823Z,11.45
2024-01-11T11:53:55.552Z,10.02
2024-01-11T11:56:25.016Z,13.07
2024-01-11T11:58:55.436Z,11.40
2024-01-11T12:01:23.443Z,11.02
2024-01-11T12:03:51.792Z,9.77
2024-01-11T12:06:21.687Z,12.40
2024-01-11T12:08:51.738Z,11.20
2024-01-11T12:11:23.080Z,11.07
2024-01-11T12:13:52.461Z,10.55
2024-01-11T12:16:20.680Z,9.90
2024-01-11T12:18:48.820Z,8.20
2024-01-11T12:21:16.957Z,9.13
2024-01-11T12:23:46.469Z,8.45
2024-01-11T12:26:16.698Z,8.23
2024-01-11T12:28:46.650Z,7.57
2024-01-11T12:31:14.952Z,7.93
2024-01-11T12:33:43.928Z,8.80
2024-01-11T12:36:13.392Z,9.80
2024-01-11T12:38:52.638Z,8.43
2024-01-11T12:41:23.631Z,7.85
2024-01-11T12:43:51.946Z,7.05
2024-01-11T12:46:20.189Z,7.90
2024-01-11T12:48:50.190Z,8.25
2024-01-11T12:51:22.889Z,8.68
2024-01-11T12:53:51.664Z,7.00
2024-01-11T12:56:21.012Z,8.13
2024-01-11T12:58:50.094Z,9.55
2024-01-11T13:01:18.251Z,9.15
2024-01-11T13:03:48.541Z,9.98
2024-01-11T13:06:18.473Z,7.57
2024-01-11T13:08:46.947Z,7.62
2024-01-11T13:11:16.462Z,7.70
2024-01-11T13:13:44.612Z,9.32
2024-01-11T13:16:16.630Z,12.23
2024-01-11T13:18:44.721Z,10.15
2024-01-11T13:21:14.944Z,10.90
2024-01-11T13:23:43.935Z,9.98
2024-01-11T13:26:12.203Z,9.55
2024-01-11T13:28:40.308Z,8.57
2024-01-11T13:31:08.506Z,8.80
2024-01-11T13:33:36.618Z,7.75
2024-01-11T13:36:04.928Z,7.85
2024-01-11T13:38:33.081Z,7.90
2024-01-11T13:41:01.159Z,8.18
2024-01-11T13:43:29.209Z,8.07
2024-01-11T13:45:57.552Z,8.77
2024-01-11T13:48:25.844Z,8.07
2024-01-11T13:50:53.975Z,6.95
2024-01-11T13:53:22.191Z,9.57
2024-01-11T13:55:50.883Z,9.13
2024-01-11T13:58:20.346Z,8.13
2024-01-11T14:00:48.476Z,8.20
2024-01-11T14:03:16.602Z,7.70
2024-01-11T14:05:44.722Z,8.02
2024-01-11T14:08:12.651Z,6.70
2024-01-11T14:10:40.571Z,8.10
2024-01-11T14:13:08.516Z,7.90
2024-01-11T14:15:36.965Z,6.93
2024-01-11T14:18:06.187Z,7.85
2024-01-11T14:20:36.201Z,7.87
2024-01-11T14:23:04.628Z,6.95
2024-01-11T14:25:32.923Z,7.80
2024-01-11T14:28:01.404Z,7.25
2024-01-11T14:30:29.458Z,7.47
2024-01-11T14:32:57.659Z,7.90
2024-01-11T14:35:25.930Z,7.53
2024-01-11T14:37:55.247Z,8.18
2024-01-11T14:40:28.800Z,7.97
2024-01-11T14:42:57.046Z,8.25
2024-01-11T14:45:25.347Z,8.65
2024-01-11T14:47:53.540Z,8.23
2024-01-11T14:50:22.181Z,7.93
2024-01-11T14:52:50.119Z,7.57
2024-01-11T14:55:18.910Z,7.43
2024-01-11T14:57:46.818Z,9.20
2024-01-11T15:00:15.748Z,7.90
2024-01-11T15:02:43.794Z,7.65
2024-01-11T15:05:11.847Z,7.40
2024-01-11T15:07:39.760Z,7.82
2024-01-11T15:10:08.172Z,9.45
2024-01-11T15:12:36.302Z,7.70
2024-01-11T15:15:08.496Z,8.25
2024-01-11T15:17:36.648Z,7.80
2024-01-11T15:20:06.852Z,9.95
2024-01-11T15:22:35.069Z,8.23
2024-01-11T15:25:02.980Z,7.65
2024-01-11T15:27:31.112Z,8.77
2024-01-11T15:29:59.141Z,8.88
2024-01-11T15:32:27.682Z,10.02
2024-01-11T15:34:56.140Z,8.77
2024-01-11T15:37:28.127Z,9.60
2024-01-11T15:39:56.681Z,10.65
2024-01-11T15:42:26.504Z,8.88
2024-01-11T15:44:54.795Z,9.25
2024-01-11T15:47:22.974Z,10.77
2024-01-11T15:49:51.038Z,11.10
2024-01-11T15:52:19.003Z,9.82
2024-01-11T15:54:46.957Z,9.82
2024-01-11T15:57:16.506Z,9.95
2024-01-11T15:59:45.869Z,10.00
2024-01-11T16:02:16.797Z,10.68
2024-01-11T16:04:47.157Z,9.93
2024-01-11T16:07:15.383Z,11.10
2024-01-11T16:09:43.362Z,10.48
2024-01-11T16:12:11.463Z,10.35
2024-01-11T16:14:39.489Z,9.95
2024-01-11T16:17:07.596Z,11.90
2024-01-11T16:19:36.290Z,11.27
2024-01-11T16:22:05.762Z,10.60
2024-01-11T16:24:33.650Z,11.23
2024-01-11T16:27:07.064Z,11.55
2024-01-11T16:29:35.178Z,10.77
2024-01-11T16:32:03.119Z,10.45
2024-01-11T16:34:31.144Z,10.43
2024-01-11T16:37:00.370Z,11.23
2024-01-11T16:39:28.318Z,12.15
2024-01-11T16:41:56.727Z,11.95
2024-01-11T16:44:24.927Z,10.88
2024-01-11T16:46:54.705Z,9.90
2024-01-11T16:49:24.782Z,11.27
2024-01-11T16:51:55.682Z,12.07
2024-01-11T16:54:24.341Z,11.52
2024-01-11T16:56:53.903Z,14.63
2024-01-11T16:59:24.173Z,12.43
2024-01-11T17:01:52.211Z,12.40
2024-01-11T17:04:20.388Z,11.40
2024-01-11T17:06:48.594Z,11.52
2024-01-11T17:09:16.606Z,13.82
2024-01-11T17:11:44.929Z,12.73
2024-01-11T17:14:13.001Z,13.30
2024-01-11T17:16:41.031Z,10.80
2024-01-11T17:19:09.054Z,12.88
2024-01-11T17:21:37.003Z,14.48
2024-01-11T17:24:05.483Z,13.48
2024-01-11T17:26:34.066Z,12.88
2024-01-11T17:29:02.359Z,11.25
2024-01-11T17:31:30.351Z,10.73
2024-01-11T17:33:59.029Z,12.37
2024-01-11T17:36:29.358Z,13.48
2024-01-11T17:38:57.564Z,12.25
2024-01-11T17:41:25.587Z,11.80
2024-01-11T17:43:55.253Z,12.88
2024-01-11T17:46:28.978Z,11.68
2024-01-11T17:48:57.706Z,12.48
2024-01-11T17:51:25.822Z,12.98
2024-01-11T17:53:57.316Z,12.65
2024-01-11T17:56:25.631Z,10.98
2024-01-11T17:58:53.623Z,11.90
2024-01-11T18:01:27.895Z,11.55
2024-01-11T18:03:55.799Z,13.40
2024-01-11T18:06:23.885Z,11.25
2024-01-11T18:08:52.119Z,12.35
2024-01-11T18:11:22.723Z,11.15
2024-01-11T18:13:50.636Z,13.90
2024-01-11T18:16:18.917Z,12.75
2024-01-11T18:18:50.656Z,15.02
2024-01-11T18:21:18.930Z,12.48
2024-01-11T18:23:47.100Z,14.20
2024-01-11T18:26:15.777Z,12.93
2024-01-11T18:28:44.036Z,12.15
2024-01-11T18:31:17.248Z,15.02
2024-01-11T18:33:49.347Z,13.30
2024-01-11T18:36:21.795Z,13.77
2024-01-11T18:38:50.200Z,13.93
2024-01-11T18:41:20.221Z,11.95
2024-01-11T18:43:48.116Z,14.90
2024-01-11T18:46:16.813Z,14.07
2024-01-11T18:48:45.070Z,14.57
2024-01-11T18:51:13.222Z,13.32
2024-01-11T18:53:42.736Z,13.85
2024-01-11T18:56:20.240Z,13.38
2024-01-11T18:58:48.285Z,12.65
2024-01-11T19:01:16.276Z,13.15
2024-01-11T19:03:44.418Z,12.70
2024-01-11T19:06:12.451Z,13.32
2024-01-11T19:08:40.564Z,12.07
2024-01-11T19:11:09.121Z,13.10
2024-01-11T19:13:37.197Z,12.70
2024-01-11T19:16:05.695Z,12.35
2024-01-11T19:18:33.946Z,13.25
2024-01-11T19:21:05.129Z,14.07
2024-01-11T19:26:01.478Z,14.77
2024-01-11T19:28:29.637Z,17.27
2024-01-11T19:30:58.336Z,13.07
2024-01-11T19:33:26.587Z,13.13
2024-01-11T19:35:55.655Z,15.05
2024-01-11T19:38:23.733Z,13.57
2024-01-11T19:40:52.340Z,13.20
2024-01-11T19:43:20.378Z,16.55
2024-01-11T19:45:48.415Z,14.77
2024-01-11T19:48:16.834Z,16.80
2024-01-11T19:50:45.178Z,15.07
2024-01-11T19:53:13.342Z,14.50
2024-01-11T19:55:43.023Z,13.00
2024-01-11T19:58:11.129Z,14.07
2024-01-11T20:00:43.428Z,16.55
2024-01-11T20:03:11.511Z,13.07
2024-01-11T20:05:39.507Z,14.77
2024-01-11T20:08:07.750Z,14.70
2024-01-11T20:10:36.277Z,14.57
2024-01-11T20:13:04.335Z,14.68
2024-01-11T20:15:33.291Z,16.12
2024-01-11T20:18:01.436Z,13.77
2024-01-11T20:20:30.709Z,15.82
2024-01-11T20:22:58.709Z,16.67
2024-01-11T20:25:27.004Z,16.45
2024-01-11T20:27:55.030Z,15.15
2024-01-11T20:30:23.124Z,14.20
2024-01-11T20:32:51.370Z,16.37
2024-01-11T20:35:19.487Z,15.68
2024-01-11T20:37:47.710Z,14.68
2024-01-11T20:40:15.694Z,13.68
2024-01-11T20:42:43.676Z,14.60
2024-01-11T20:45:11.939Z,13.70
2024-01-11T20:47:39.920Z,14.27
2024-01-11T20:50:08.691Z,13.65
2024-01-11T20:52:39.455Z,14.32
2024-01-11T20:55:07.465Z,15.57
2024-01-11T20:57:35.608Z,16.45
2024-01-11T21:00:05.780Z,15.95
2024-01-11T21:02:34.786Z,18.27
2024-01-11T21:05:02.792Z,17.85
2024-01-11T21:07:30.812Z,17.40
2024-01-11T21:09:59.978Z,18.62
2024-01-11T21:12:28.192Z,15.27
2024-01-11T21:14:56.297Z,18.05
2024-01-11T21:17:24.308Z,16.12
2024-01-11T21:19:53.470Z,15.68
2024-01-11T21:22:21.459Z,16.42
2024-01-11T21:24:50.140Z,17.70
2024-01-11T21:27:18.131Z,17.62
2024-01-11T21:29:46.164Z,17.25
2024-01-11T21:32:16.398Z,18.83
2024-01-11T21:34:44.743Z,16.70
2024-01-11T21:37:12.732Z,18.55
2024-01-11T21:39:40.723Z,15.98
2024-01-11T21:42:08.666Z,17.30
2024-01-11T21:44:36.708Z,19.05
2024-01-11T21:47:04.792Z,17.48
2024-01-11T21:49:32.722Z,18.02
2024-01-11T21:52:00.748Z,18.50
2024-01-11T21:54:28.867Z,21.02
2024-01-11T21:56:59.480Z,17.90
2024-01-11T21:59:27.560Z,17.60
2024-01-11T22:01:55.581Z,20.08
2024-01-11T22:04:23.495Z,19.50
2024-01-11T22:06:51.595Z,18.50
2024-01-11T22:09:20.448Z,17.10
2024-01-11T22:11:48.488Z,16.55
2024-01-11T22:14:16.470Z,20.70
2024-01-11T22:16:44.890Z,18.80
2024-01-11T22:19:13.076Z,18.05
2024-01-11T22:21:41.986Z,18.30
2024-01-11T22:24:10.694Z,20.00
2024-01-11T22:26:38.702Z,20.62
2024-01-11T22:29:06.621Z,19.42
2024-01-11T22:31:35.352Z,21.52
2024-01-11T22:34:04.821Z,18.70
2024-01-11T22:36:32.821Z,20.95
2024-01-11T22:39:01.018Z,20.37
2024-01-11T22:41:31.177Z,22.25
2024-01-11T22:43:59.543Z,18.75
2024-01-11T22:46:27.773Z,18.77
2024-01-11T22:48:55.798Z,18.58
2024-01-11T22:51:24.538Z,20.55
2024-01-11T22:53:53.329Z,19.17
2024-01-11T22:56:21.309Z,20.40
2024-01-11T22:58:49.359Z,19.42
2024-01-11T23:01:17.414Z,22.73
2024-01-11T23:03:45.465Z,17.77
2024-01-11T23:06:13.733Z,22.00
2024-01-11T23:08:41.830Z,22.30
2024-01-11T23:11:10.315Z,19.95
2024-01-11T23:13:38.321Z,18.42
2024-01-11T23:16:06.625Z,17.37
2024-01-11T23:18:35.173Z,16.70
2024-01-11T23:21:03.420Z,16.42
2024-01-11T23:23:31.535Z,18.73
2024-01-11T23:25:59.574Z,17.35
2024-01-11T23:28:27.467Z,17.70
2024-01-11T23:30:55.850Z,16.85
2024-01-11T23:33:24.054Z,18.92
2024-01-11T23:35:52.200Z,19.50
2024-01-11T23:38:20.307Z,16.33
2024-01-11T23:40:48.397Z,16.70
2024-01-11T23:43:16.388Z,17.50
2024-01-11T23:45:44.336Z,17.15
2024-01-11T23:48:12.680Z,16.85
2024-01-11T23:50:40.765Z,15.38
2024-01-11T23:53:08.837Z,17.15
2024-01-11T23:55:36.855Z,16.15
2024-01-11T23:58:05.142Z,16.65
